createdAt,value
2019-03-08T00:00:07.354Z,7.44
2019-03-08T00:01:07.336Z,7.46
2019-03-08T00:02:07.317Z,7.43
2019-03-08T00:03:07.298Z,7.46
2019-03-08T00:04:07.280Z,7.44
2019-03-08T00:05:07.261Z,7.44
2019-03-08T00:06:07.242Z,7.47
2019-03-08T00:07:07.225Z,7.47
2019-03-08T00:08:07.207Z,7.51
2019-03-08T00:09:08.990Z,7.48
2019-03-08T00:10:07.170Z,7.50
2019-03-08T00:11:07.150Z,7.51
2019-03-08T00:12:07.135Z,7.51
2019-03-08T00:13:07.114Z,7.50
2019-03-08T00:14:07.102Z,7.59
2019-03-08T00:15:07.086Z,7.50
2019-03-08T00:16:07.060Z,7.62
2019-03-08T00:17:07.040Z,7.55
2019-03-08T00:18:07.017Z,7.58
2019-03-08T00:19:07.004Z,7.61
2019-03-08T00:20:06.988Z,7.67
2019-03-08T00:21:06.965Z,7.61
2019-03-08T00:22:06.949Z,7.66
2019-03-08T00:23:06.933Z,7.70
2019-03-08T00:24:06.913Z,7.74
2019-03-08T00:25:06.894Z,7.75
2019-03-08T00:26:06.874Z,7.66
2019-03-08T00:27:06.857Z,7.75
2019-03-08T00:28:06.839Z,7.74
2019-03-08T00:29:06.818Z,7.75
2019-03-08T00:30:06.802Z,7.75
2019-03-08T00:31:06.783Z,7.67
2019-03-08T00:32:06.766Z,7.64
2019-03-08T00:33:06.747Z,7.66
2019-03-08T00:34:06.729Z,7.70
2019-03-08T00:35:06.711Z,7.62
2019-03-08T00:36:06.692Z,7.70
2019-03-08T00:37:06.674Z,7.62
2019-03-08T00:38:06.658Z,7.70
2019-03-08T00:39:06.638Z,7.67
2019-03-08T00:40:06.620Z,7.62
2019-03-08T00:41:06.601Z,7.72
2019-03-08T00:42:06.583Z,7.66
2019-03-08T00:43:06.566Z,7.66
2019-03-08T00:44:06.555Z,7.69
2019-03-08T00:45:06.527Z,7.64
2019-03-08T00:46:06.507Z,7.64
2019-03-08T00:47:06.490Z,7.69
2019-03-08T00:48:06.472Z,7.77
2019-03-08T00:49:08.049Z,7.72
2019-03-08T00:50:06.440Z,7.69
2019-03-08T00:51:06.438Z,7.75
2019-03-08T00:52:06.400Z,7.70
2019-03-08T00:53:06.380Z,7.77
2019-03-08T00:54:06.364Z,7.75
2019-03-08T00:55:06.344Z,7.78
2019-03-08T00:56:06.331Z,7.67
2019-03-08T00:57:06.307Z,7.78
2019-03-08T00:58:06.291Z,7.77
2019-03-08T00:59:06.266Z,7.67
2019-03-08T01:00:06.253Z,7.67
2019-03-08T01:01:06.251Z,7.72
2019-03-08T01:03:47.577Z,7.84
2019-03-08T01:04:47.538Z,7.67
2019-03-08T01:06:41.400Z,7.80
2019-03-08T01:07:41.366Z,7.75
2019-03-08T01:09:34.243Z,7.75
2019-03-08T01:10:34.211Z,7.72
2019-03-08T01:12:27.069Z,7.74
2019-03-08T01:13:27.044Z,7.66
2019-03-08T01:15:22.038Z,7.80
2019-03-08T01:16:22.010Z,7.78
2019-03-08T01:17:21.972Z,7.77
2019-03-08T01:18:21.978Z,7.74
2019-03-08T01:19:21.955Z,7.77
2019-03-08T01:20:21.924Z,7.80
2019-03-08T01:21:21.905Z,7.78
2019-03-08T01:22:21.885Z,7.78
2019-03-08T01:23:21.881Z,7.77
2019-03-08T02:19:01.193Z,7.15
2019-03-08T02:20:01.167Z,7.03
2019-03-08T02:21:54.031Z,7.05
2019-03-08T02:22:54.011Z,7.13
2019-03-08T02:24:46.862Z,7.00
2019-03-08T02:25:46.832Z,6.97
2019-03-08T02:27:40.694Z,7.03
2019-03-08T02:28:40.658Z,6.95
2019-03-08T02:30:35.366Z,6.92
2019-03-08T02:31:35.331Z,6.97
2019-03-08T02:33:28.212Z,7.00
2019-03-08T02:34:28.176Z,7.04
2019-03-08T02:38:17.246Z,7.08
2019-03-08T02:39:25.555Z,7.05
2019-03-08T02:41:23.059Z,7.07
2019-03-08T02:44:24.686Z,7.08
2019-03-08T02:45:34.136Z,7.14
2019-03-08T02:54:05.676Z,6.85
2019-03-08T02:55:05.597Z,7.03
2019-03-08T02:56:59.491Z,6.93
2019-03-08T02:57:59.445Z,6.93
2019-03-08T02:58:59.415Z,6.86
2019-03-08T02:59:59.390Z,6.89
2019-03-08T03:00:59.368Z,6.82
2019-03-08T03:01:59.351Z,6.85
2019-03-08T03:02:59.331Z,6.87
2019-03-08T03:03:59.316Z,6.92
2019-03-08T03:04:59.299Z,6.85
2019-03-08T03:05:59.277Z,6.83
2019-03-08T03:06:59.260Z,6.82
2019-03-08T03:07:59.241Z,6.72
2019-03-08T03:08:59.220Z,6.83
2019-03-08T03:09:59.200Z,6.77
2019-03-08T03:10:59.181Z,6.82
2019-03-08T03:11:59.165Z,6.71
2019-03-08T03:12:59.144Z,6.75
2019-03-08T03:13:59.147Z,6.71
2019-03-08T03:14:59.108Z,6.71
2019-03-08T03:15:59.096Z,6.68
2019-03-08T03:16:59.071Z,6.74
2019-03-08T03:17:59.066Z,6.62
2019-03-08T03:18:59.073Z,6.68
2019-03-08T03:19:59.088Z,6.59
2019-03-08T03:20:59.086Z,6.62
2019-03-08T03:21:59.022Z,6.62
2019-03-08T03:22:59.006Z,6.65
2019-03-08T03:23:58.955Z,6.67
2019-03-08T03:24:58.924Z,6.59
2019-03-08T03:25:58.928Z,6.56
2019-03-08T03:26:58.920Z,6.67
2019-03-08T03:27:58.921Z,6.62
2019-03-08T03:28:58.870Z,6.62
2019-03-08T03:29:58.883Z,6.67
2019-03-08T03:30:58.824Z,6.59
2019-03-08T03:31:58.799Z,6.62
2019-03-08T03:32:58.788Z,6.64
2019-03-08T03:33:58.756Z,6.57
2019-03-08T03:34:58.730Z,6.68
2019-03-08T03:35:58.739Z,6.56
2019-03-08T03:36:58.722Z,6.47
2019-03-08T03:37:58.713Z,6.50
2019-03-08T03:38:58.688Z,6.53
2019-03-08T03:39:58.699Z,6.41
2019-03-08T03:40:58.643Z,6.38
2019-03-08T03:41:58.618Z,6.44
2019-03-08T03:42:58.582Z,6.43
2019-03-08T03:43:58.570Z,6.43
2019-03-08T03:44:58.578Z,6.39
2019-03-08T03:45:58.528Z,6.38
2019-03-08T03:46:58.514Z,6.43
2019-03-08T03:47:58.496Z,6.43
2019-03-08T03:48:58.492Z,6.36
2019-03-08T03:49:58.501Z,6.44
2019-03-08T03:50:58.514Z,6.43
2019-03-08T03:51:58.436Z,6.43
2019-03-08T03:52:58.436Z,6.39
2019-03-08T03:53:58.381Z,6.31
2019-03-08T03:54:58.372Z,6.35
2019-03-08T03:55:58.418Z,6.28
2019-03-08T03:56:58.380Z,6.32
2019-03-08T03:57:58.366Z,6.32
2019-03-08T03:58:58.301Z,6.35
2019-03-08T03:59:58.324Z,6.32
2019-03-08T04:00:58.269Z,6.31
2019-03-08T04:01:58.242Z,6.31
2019-03-08T04:02:58.285Z,6.32
2019-03-08T04:03:58.223Z,6.28
2019-03-08T04:04:58.169Z,6.26
2019-03-08T04:05:58.148Z,6.28
2019-03-08T04:06:58.134Z,6.31
2019-03-08T04:07:58.160Z,6.29
2019-03-08T04:08:58.105Z,6.34
2019-03-08T04:09:58.070Z,6.34
2019-03-08T04:10:58.057Z,6.17
2019-03-08T04:11:58.036Z,6.26
2019-03-08T04:12:58.016Z,6.29
2019-03-08T04:13:58.040Z,6.22
2019-03-08T04:14:57.976Z,6.19
2019-03-08T04:15:57.959Z,6.19
2019-03-08T04:16:57.964Z,6.20
2019-03-08T04:17:57.950Z,6.16
2019-03-08T04:18:57.908Z,6.17
2019-03-08T04:19:57.909Z,6.20
2019-03-08T04:20:57.888Z,6.22
2019-03-08T04:21:57.904Z,6.22
2019-03-08T04:22:57.826Z,6.13
2019-03-08T04:23:57.839Z,6.26
2019-03-08T04:24:57.809Z,6.20
2019-03-08T04:25:57.781Z,6.17
2019-03-08T04:26:57.824Z,6.15
2019-03-08T04:27:57.770Z,6.17
2019-03-08T04:28:57.730Z,6.17
2019-03-08T04:29:57.697Z,6.12
2019-03-08T04:30:57.687Z,6.10
2019-03-08T04:31:57.654Z,6.16
2019-03-08T04:32:57.691Z,6.13
2019-03-08T04:33:57.689Z,6.17
2019-03-08T04:34:59.518Z,6.05
2019-03-08T04:35:57.609Z,6.05
2019-03-08T04:36:57.686Z,6.01
2019-03-08T04:37:57.677Z,6.10
2019-03-08T04:38:57.582Z,6.09
2019-03-08T04:40:05.763Z,6.17
2019-03-08T04:41:56.466Z,6.02
2019-03-08T04:42:54.517Z,6.05
2019-03-08T04:43:54.523Z,6.06
2019-03-08T04:44:54.482Z,6.02
2019-03-08T04:45:54.475Z,6.16
2019-03-08T04:46:54.453Z,6.17
2019-03-08T04:47:54.416Z,6.16
2019-03-08T04:48:54.405Z,6.12
2019-03-08T04:49:54.712Z,6.20
2019-03-08T04:50:54.362Z,6.13
2019-03-08T04:52:00.915Z,6.17
2019-03-08T04:52:54.340Z,6.09
2019-03-08T04:53:56.136Z,6.17
2019-03-08T05:00:49.059Z,6.13
2019-03-08T05:01:55.550Z,6.10
2019-03-08T05:03:46.406Z,6.09
2019-03-08T05:04:51.530Z,6.12
2019-03-08T05:06:38.272Z,6.16
2019-03-08T05:09:23.728Z,6.01
2019-03-08T05:10:32.312Z,6.02
2019-03-08T05:19:35.258Z,6.19
2019-03-08T05:36:29.443Z,6.36
2019-03-08T05:45:17.874Z,6.39
2019-03-08T05:54:55.928Z,6.44
2019-03-08T05:55:58.474Z,6.47
2019-03-08T06:09:24.092Z,6.44
2019-03-08T06:34:15.943Z,6.74
2019-03-08T06:37:06.126Z,6.71
2019-03-08T06:41:04.818Z,6.80
2019-03-08T06:44:02.695Z,6.87
2019-03-08T06:46:50.331Z,6.82
2019-03-08T06:49:32.123Z,6.85
2019-03-08T06:50:36.351Z,6.83
2019-03-08T06:54:04.768Z,6.93
2019-03-08T06:57:01.919Z,6.92
2019-03-08T07:05:25.749Z,7.00
2019-03-08T07:06:24.109Z,7.05
2019-03-08T07:11:00.950Z,7.13
2019-03-08T07:12:12.678Z,7.03
2019-03-08T07:14:25.362Z,7.18
2019-03-08T07:16:53.935Z,7.13
2019-03-08T07:20:11.825Z,7.28
2019-03-08T07:28:57.529Z,7.25
2019-03-08T07:31:41.995Z,7.21
2019-03-08T07:32:46.422Z,7.19
2019-03-08T07:34:25.836Z,7.33
2019-03-08T07:35:37.421Z,7.40
2019-03-08T07:41:39.930Z,7.47
2019-03-08T07:42:36.682Z,7.55
2019-03-08T07:43:39.933Z,7.59
2019-03-08T07:47:46.471Z,7.67
2019-03-08T07:51:14.389Z,7.67
2019-03-08T07:52:28.729Z,7.72
2019-03-08T07:54:21.480Z,7.87
2019-03-08T07:57:43.620Z,7.98
2019-03-08T07:58:51.343Z,7.98
2019-03-08T08:00:38.656Z,8.08
2019-03-08T08:01:49.818Z,8.09
2019-03-08T08:04:52.998Z,8.08
2019-03-08T08:08:02.010Z,8.03
2019-03-08T08:10:42.397Z,8.09
2019-03-08T08:11:46.270Z,8.08
2019-03-08T08:13:29.659Z,8.06
2019-03-08T08:14:40.573Z,8.06
2019-03-08T08:16:23.493Z,8.02
2019-03-08T08:17:33.855Z,8.14
2019-03-08T08:19:34.351Z,8.06
2019-03-08T08:20:32.090Z,7.93
2019-03-08T08:22:25.880Z,8.06
2019-03-08T08:24:57.846Z,8.02
2019-03-08T08:26:07.974Z,7.96
2019-03-08T08:28:15.813Z,8.05
2019-03-08T08:29:17.525Z,8.06
2019-03-08T08:31:15.589Z,8.09
2019-03-08T08:32:14.804Z,8.09
2019-03-08T08:33:59.536Z,8.13
2019-03-08T08:35:07.583Z,8.09
2019-03-08T08:36:11.940Z,8.05
2019-03-08T08:38:18.229Z,8.21
2019-03-08T08:41:15.128Z,8.26
2019-03-08T08:43:47.942Z,8.28
2019-03-08T08:45:05.457Z,8.38
2019-03-08T08:46:42.188Z,8.39
2019-03-08T08:47:52.854Z,8.45
2019-03-08T08:51:03.516Z,8.46
2019-03-08T08:54:20.879Z,8.53
2019-03-08T08:57:13.527Z,8.57
2019-03-08T08:58:24.987Z,8.52
2019-03-08T09:00:23.094Z,8.54
2019-03-08T09:01:22.762Z,8.54
2019-03-08T09:03:17.779Z,8.46
2019-03-08T09:05:56.455Z,8.54
2019-03-08T09:07:03.536Z,8.50
2019-03-08T09:08:52.145Z,8.52
2019-03-08T09:10:10.244Z,8.54
2019-03-08T09:11:52.290Z,8.69
2019-03-08T09:15:02.341Z,8.74
2019-03-08T09:16:17.299Z,8.77
2019-03-08T09:18:07.662Z,8.77
2019-03-08T09:19:04.864Z,8.81
2019-03-08T09:20:49.603Z,8.72
2019-03-08T09:23:41.302Z,8.46
2019-03-08T09:26:37.829Z,8.34
2019-03-08T09:29:22.014Z,8.14
2019-03-08T09:32:09.435Z,8.03
2019-03-08T09:33:19.569Z,7.99
2019-03-08T09:35:05.151Z,7.88
2019-03-08T09:36:21.712Z,7.83
2019-03-08T10:04:18.419Z,6.89
2019-03-08T10:07:43.596Z,6.85
2019-03-08T10:08:43.563Z,6.68
2019-03-08T10:10:36.463Z,6.57
2019-03-08T10:11:44.101Z,6.59
2019-03-08T10:13:29.515Z,6.49
2019-03-08T10:14:29.493Z,6.44
2019-03-08T10:16:22.342Z,6.43
2019-03-08T10:17:22.319Z,6.36
2019-03-08T10:19:15.251Z,6.31
2019-03-08T10:20:15.147Z,6.32
2019-03-08T10:22:09.006Z,6.20
2019-03-08T10:23:08.968Z,6.25
2019-03-08T10:25:02.349Z,6.20
2019-03-08T10:26:02.323Z,6.22
2019-03-08T10:27:56.196Z,6.26
2019-03-08T10:28:56.141Z,6.20
2019-03-08T10:29:56.125Z,6.29
2019-03-08T10:30:56.107Z,6.25
2019-03-08T10:31:56.089Z,6.28
2019-03-08T10:32:56.080Z,6.31
2019-03-08T10:33:56.068Z,6.36
2019-03-08T10:34:56.030Z,6.28
2019-03-08T10:35:56.013Z,6.25
2019-03-08T10:36:55.994Z,6.31
2019-03-08T10:37:55.975Z,6.39
2019-03-08T10:38:55.955Z,6.31
2019-03-08T10:39:55.938Z,6.39
2019-03-08T10:40:55.920Z,6.36
2019-03-08T10:41:55.899Z,6.44
2019-03-08T10:42:55.883Z,6.46
2019-03-08T10:43:55.863Z,6.43
2019-03-08T10:44:55.843Z,6.46
2019-03-08T10:45:55.824Z,6.38
2019-03-08T10:46:55.811Z,6.38
2019-03-08T10:47:56.439Z,6.44
2019-03-08T10:48:55.770Z,6.41
2019-03-08T10:49:56.267Z,6.41
2019-03-08T10:50:55.731Z,6.44
2019-03-08T10:51:55.713Z,6.41
2019-03-08T10:52:55.709Z,6.41
2019-03-08T10:54:00.746Z,6.56
2019-03-08T10:54:55.657Z,6.59
2019-03-08T10:55:55.655Z,6.54
2019-03-08T10:56:55.706Z,6.56
2019-03-08T10:57:55.605Z,6.62
2019-03-08T10:58:55.581Z,6.53
2019-03-08T10:59:55.556Z,6.62
2019-03-08T11:00:55.541Z,6.68
2019-03-08T11:01:55.524Z,6.60
2019-03-08T11:02:55.510Z,6.70
2019-03-08T11:03:55.488Z,6.74
2019-03-08T11:04:55.467Z,6.70
2019-03-08T11:05:55.474Z,6.68
2019-03-08T11:06:55.430Z,6.77
2019-03-08T11:07:55.413Z,6.70
2019-03-08T11:08:57.417Z,6.80
2019-03-08T11:09:55.376Z,6.82
2019-03-08T11:10:55.358Z,6.85
2019-03-08T11:11:55.335Z,6.95
2019-03-08T11:12:55.332Z,6.97
2019-03-08T11:13:55.301Z,7.08
2019-03-08T11:14:55.283Z,7.04
2019-03-08T11:15:55.263Z,7.13
2019-03-08T11:16:55.249Z,7.14
2019-03-08T11:17:55.233Z,7.19
2019-03-08T11:18:55.213Z,7.25
2019-03-08T11:19:55.205Z,7.21
2019-03-08T11:20:55.187Z,7.31
2019-03-08T11:21:55.152Z,7.28
2019-03-08T11:22:55.134Z,7.39
2019-03-08T11:23:55.112Z,7.32
2019-03-08T11:24:55.109Z,7.32
2019-03-08T11:25:55.081Z,7.26
2019-03-08T11:26:55.062Z,7.28
2019-03-08T11:27:55.224Z,7.25
2019-03-08T11:28:55.049Z,7.29
2019-03-08T11:29:55.006Z,7.25
2019-03-08T11:30:54.987Z,7.25
2019-03-08T11:31:54.968Z,7.10
2019-03-08T11:32:54.964Z,7.18
2019-03-08T11:33:54.934Z,7.14
2019-03-08T11:34:54.915Z,7.00
2019-03-08T11:35:54.888Z,7.15
2019-03-08T11:36:54.888Z,7.04
2019-03-08T11:37:54.860Z,6.97
2019-03-08T11:38:54.841Z,7.03
2019-03-08T11:39:54.823Z,7.01
2019-03-08T11:40:55.470Z,6.92
2019-03-08T11:41:54.786Z,6.86
2019-03-08T11:42:54.767Z,6.93
2019-03-08T11:43:56.335Z,6.87
2019-03-08T11:44:54.727Z,6.90
2019-03-08T11:45:54.711Z,6.87
2019-03-08T11:46:54.693Z,6.85
2019-03-08T11:47:54.675Z,6.82
2019-03-08T11:48:54.655Z,6.82
2019-03-08T11:49:54.635Z,6.82
2019-03-08T11:50:54.618Z,6.85
2019-03-08T11:51:54.601Z,6.89
2019-03-08T11:52:54.585Z,6.86
2019-03-08T11:53:56.368Z,6.87
2019-03-08T11:54:54.546Z,6.82
2019-03-08T11:55:54.530Z,6.85
2019-03-08T11:56:56.310Z,6.89
2019-03-08T11:57:54.489Z,7.04
2019-03-08T11:58:54.473Z,7.08
2019-03-08T11:59:54.454Z,7.32
2019-03-08T12:00:54.435Z,7.44
2019-03-08T12:01:54.416Z,7.59
2019-03-08T12:02:54.412Z,7.66
2019-03-08T12:03:54.381Z,7.69
2019-03-08T12:04:54.358Z,7.78
2019-03-08T12:05:54.344Z,7.74
2019-03-08T12:06:54.327Z,7.93
2019-03-08T12:07:54.308Z,7.96
2019-03-08T12:08:54.289Z,7.96
2019-03-08T12:09:54.274Z,7.99
2019-03-08T12:10:54.306Z,7.90
2019-03-08T12:11:54.240Z,8.01
2019-03-08T12:12:54.219Z,7.99
2019-03-08T12:13:54.200Z,8.01
2019-03-08T12:14:54.185Z,8.09
2019-03-08T12:15:54.166Z,8.05
2019-03-08T12:16:54.147Z,8.08
2019-03-08T12:17:54.130Z,8.09
2019-03-08T12:18:54.113Z,8.26
2019-03-08T12:19:54.098Z,8.28
2019-03-08T12:20:54.076Z,8.45
2019-03-08T12:21:54.082Z,8.72
2019-03-08T12:23:06.235Z,8.90
2019-03-08T12:23:56.057Z,9.16
2019-03-08T12:24:56.050Z,9.37
2019-03-08T12:25:56.889Z,9.58
2019-03-08T12:26:56.944Z,9.74
2019-03-08T12:27:55.487Z,10.02
2019-03-08T12:28:56.012Z,10.33
2019-03-08T12:29:55.709Z,10.59
2019-03-08T12:30:55.142Z,10.77
2019-03-08T12:31:54.914Z,11.01
2019-03-08T12:32:53.896Z,10.98
2019-03-08T12:33:53.860Z,10.97
2019-03-08T12:34:53.844Z,10.89
2019-03-08T12:35:53.846Z,10.77
2019-03-08T12:36:53.836Z,10.62
2019-03-08T12:37:53.825Z,10.58
2019-03-08T12:38:53.780Z,10.42
2019-03-08T12:39:53.778Z,10.34
2019-03-08T12:40:53.801Z,10.12
2019-03-08T12:41:53.750Z,10.06
2019-03-08T12:42:54.264Z,9.94
2019-03-08T12:43:53.734Z,9.74
2019-03-08T12:44:53.725Z,9.62
2019-03-08T12:45:53.664Z,9.64
2019-03-08T12:46:53.668Z,9.62
2019-03-08T12:48:02.368Z,9.70
2019-03-08T12:49:01.866Z,9.97
2019-03-08T12:50:49.349Z,10.36
2019-03-08T12:51:59.903Z,10.55
2019-03-08T12:58:19.513Z,11.51
2019-03-08T13:11:35.413Z,11.71
2019-03-08T13:12:35.441Z,11.49
2019-03-08T13:14:29.818Z,11.31
2019-03-08T13:15:29.188Z,11.15
2019-03-08T13:16:29.165Z,11.10
2019-03-08T13:17:29.139Z,10.94
2019-03-08T13:18:29.131Z,10.83
2019-03-08T13:19:29.116Z,10.87
2019-03-08T13:20:29.088Z,10.84
2019-03-08T13:21:29.079Z,10.87
2019-03-08T13:22:29.059Z,10.87
2019-03-08T13:23:29.058Z,10.77
2019-03-08T13:24:29.020Z,10.80
2019-03-08T13:25:29.008Z,10.72
2019-03-08T13:26:29.003Z,10.58
2019-03-08T13:27:28.981Z,10.53
2019-03-08T13:28:28.956Z,10.39
2019-03-08T13:29:28.950Z,10.33
2019-03-08T13:30:28.929Z,10.15
2019-03-08T13:31:28.930Z,10.10
2019-03-08T13:32:28.912Z,10.03
2019-03-08T13:33:44.111Z,10.06
2019-03-08T13:35:36.444Z,10.02
2019-03-08T13:38:19.882Z,10.46
2019-03-08T13:41:14.174Z,11.55
2019-03-08T13:42:21.580Z,11.91
2019-03-08T13:44:49.917Z,12.66
2019-03-08T13:45:49.140Z,12.83
2019-03-08T13:47:33.323Z,12.95
2019-03-08T13:50:16.719Z,12.88
2019-03-08T13:51:23.705Z,12.86
2019-03-08T13:53:21.412Z,12.93
2019-03-08T13:54:28.753Z,13.06
2019-03-08T13:56:14.263Z,13.27
2019-03-08T13:57:14.242Z,13.28
2019-03-08T13:59:10.149Z,13.24
2019-03-08T14:00:10.125Z,13.12
2019-03-08T14:01:19.131Z,13.08
2019-03-08T14:03:05.233Z,12.87
2019-03-08T14:04:05.163Z,12.76
2019-03-08T14:05:05.155Z,12.57
2019-03-08T14:06:05.138Z,12.51
2019-03-08T14:07:05.126Z,12.36
2019-03-08T14:08:05.115Z,12.14
2019-03-08T14:09:05.101Z,11.95
2019-03-08T14:10:05.107Z,11.77
2019-03-08T14:11:05.079Z,11.71
2019-03-08T14:12:05.067Z,11.78
2019-03-08T14:13:05.135Z,11.86
2019-03-08T14:14:05.033Z,11.93
2019-03-08T14:15:05.018Z,12.03
2019-03-08T14:16:05.031Z,12.18
2019-03-08T14:17:04.991Z,12.21
2019-03-08T14:18:04.976Z,12.47
2019-03-08T14:19:04.959Z,12.62
2019-03-08T14:20:04.971Z,12.75
2019-03-08T14:21:04.957Z,12.86
2019-03-08T14:22:04.920Z,12.90
2019-03-08T14:23:04.906Z,12.99
2019-03-08T14:24:04.911Z,13.12
2019-03-08T14:25:04.891Z,13.16
2019-03-08T14:26:04.857Z,13.19
2019-03-08T14:27:04.844Z,13.17
2019-03-08T14:28:04.835Z,13.05
2019-03-08T14:29:04.831Z,12.86
2019-03-08T14:30:04.829Z,12.94
2019-03-08T14:31:04.841Z,12.88
2019-03-08T14:32:04.774Z,12.81
2019-03-08T14:33:04.779Z,12.63
2019-03-08T14:34:04.783Z,12.65
2019-03-08T14:35:04.782Z,12.53
2019-03-08T14:36:06.089Z,12.40
2019-03-08T14:37:04.730Z,12.35
2019-03-08T14:38:04.728Z,12.54
2019-03-08T14:39:08.033Z,12.47
2019-03-08T14:40:04.686Z,12.57
2019-03-08T14:41:04.653Z,12.45
2019-03-08T14:42:05.388Z,12.30
2019-03-08T14:43:04.616Z,12.23
2019-03-08T14:44:04.612Z,12.15
2019-03-08T14:45:07.796Z,12.05
2019-03-08T14:46:04.581Z,11.96
2019-03-08T14:47:04.573Z,11.74
2019-03-08T14:48:05.989Z,11.60
2019-03-08T14:49:04.511Z,11.51
2019-03-08T14:50:04.501Z,11.38
2019-03-08T14:51:04.506Z,11.30
2019-03-08T14:52:04.470Z,11.12
2019-03-08T14:53:04.472Z,11.04
2019-03-08T14:54:06.038Z,10.97
2019-03-08T14:55:04.482Z,10.90
2019-03-08T14:56:04.425Z,10.71
2019-03-08T14:57:04.406Z,10.75
2019-03-08T14:58:04.372Z,10.65
2019-03-08T14:59:04.396Z,10.75
2019-03-08T15:00:04.381Z,10.69
2019-03-08T15:01:06.317Z,10.71
2019-03-08T15:02:04.310Z,10.72
2019-03-08T15:03:04.360Z,10.87
2019-03-08T15:04:04.289Z,10.87
2019-03-08T15:05:11.283Z,10.94
2019-03-08T15:06:04.252Z,10.87
2019-03-08T15:07:04.662Z,10.92
2019-03-08T15:08:04.429Z,10.82
2019-03-08T15:09:04.222Z,10.77
2019-03-08T15:10:06.183Z,10.75
2019-03-08T15:11:04.245Z,10.77
2019-03-08T15:12:04.170Z,10.84
2019-03-08T15:13:04.161Z,10.77
2019-03-08T15:14:04.161Z,10.67
2019-03-08T15:15:07.253Z,10.77
2019-03-08T15:16:04.226Z,10.68
2019-03-08T15:17:09.062Z,10.79
2019-03-08T15:18:04.075Z,10.80
2019-03-08T15:19:04.951Z,10.68
2019-03-08T15:20:04.048Z,10.77
2019-03-08T15:21:04.031Z,10.72
2019-03-08T15:22:03.996Z,10.69
2019-03-08T15:23:04.032Z,10.69
2019-03-08T15:24:04.103Z,10.67
2019-03-08T15:25:04.010Z,10.67
2019-03-08T15:26:03.995Z,10.67
2019-03-08T15:27:03.957Z,10.64
2019-03-08T15:28:03.950Z,10.53
2019-03-08T15:29:04.565Z,10.53
2019-03-08T15:30:03.856Z,10.46
2019-03-08T15:31:03.876Z,10.46
2019-03-08T15:32:03.824Z,10.39
2019-03-08T15:33:03.865Z,10.45
2019-03-08T15:34:03.851Z,10.41
2019-03-08T15:35:03.907Z,10.33
2019-03-08T15:36:03.819Z,10.25
2019-03-08T15:37:03.785Z,10.17
2019-03-08T15:38:03.786Z,10.12
2019-03-08T15:39:03.794Z,10.02
2019-03-08T15:40:03.749Z,10.02
2019-03-08T15:41:03.793Z,9.94
2019-03-08T15:42:03.765Z,9.84
2019-03-08T15:43:03.722Z,9.70
2019-03-08T15:44:03.768Z,9.72
2019-03-08T15:45:05.833Z,9.66
2019-03-08T15:46:03.654Z,9.59
2019-03-08T15:47:03.665Z,9.56
2019-03-08T15:48:03.597Z,9.47
2019-03-08T15:49:03.570Z,9.36
2019-03-08T15:50:04.576Z,9.29
2019-03-08T15:51:03.561Z,9.24
2019-03-08T15:52:04.542Z,9.15
2019-03-08T15:53:03.529Z,9.21
2019-03-08T15:54:03.543Z,9.08
2019-03-08T15:55:03.512Z,8.95
2019-03-08T15:56:03.507Z,8.97
2019-03-08T15:57:04.146Z,8.99
2019-03-08T15:58:03.487Z,8.97
2019-03-08T15:59:03.504Z,8.84
2019-03-08T16:00:03.434Z,8.87
2019-03-08T16:01:03.390Z,8.87
2019-03-08T16:02:06.127Z,8.77
2019-03-08T16:03:03.397Z,8.75
2019-03-08T16:04:03.358Z,8.77
2019-03-08T16:05:03.953Z,8.69
2019-03-08T16:06:06.402Z,8.72
2019-03-08T16:07:03.368Z,8.56
2019-03-08T16:08:03.919Z,8.56
2019-03-08T16:09:03.241Z,8.59
2019-03-08T16:10:03.262Z,8.57
2019-03-08T16:11:03.243Z,8.45
2019-03-08T16:12:03.224Z,8.45
2019-03-08T16:13:03.157Z,8.46
2019-03-08T16:14:08.824Z,8.44
2019-03-08T16:15:03.150Z,8.46
2019-03-08T16:16:03.149Z,8.32
2019-03-08T16:17:03.122Z,8.38
2019-03-08T16:18:03.092Z,8.28
2019-03-08T16:19:03.073Z,8.39
2019-03-08T16:20:03.960Z,8.38
2019-03-08T16:21:03.094Z,8.27
2019-03-08T16:22:03.062Z,8.27
2019-03-08T16:23:06.654Z,8.23
2019-03-08T16:24:02.934Z,8.18
2019-03-08T16:25:06.647Z,8.26
2019-03-08T16:26:03.016Z,8.20
2019-03-08T16:27:03.904Z,8.23
2019-03-08T16:28:16.142Z,8.13
2019-03-08T16:29:56.834Z,8.13
2019-03-08T16:30:56.798Z,8.14
2019-03-08T16:32:49.691Z,8.14
2019-03-08T16:33:49.662Z,8.13
2019-03-08T16:34:49.651Z,8.13
2019-03-08T16:35:49.618Z,8.14
2019-03-08T16:36:49.601Z,8.06
2019-03-08T16:37:49.597Z,8.09
2019-03-08T16:38:49.558Z,8.06
2019-03-08T16:39:49.560Z,8.05
2019-03-08T16:40:49.541Z,7.98
2019-03-08T16:41:49.532Z,7.98
2019-03-08T16:42:49.496Z,8.01
2019-03-08T16:43:49.485Z,7.95
2019-03-08T16:44:49.487Z,7.96
2019-03-08T16:45:50.541Z,7.90
2019-03-08T16:46:49.440Z,7.84
2019-03-08T16:47:50.120Z,7.84
2019-03-08T16:48:49.419Z,7.81
2019-03-08T16:49:51.488Z,7.96
2019-03-08T16:50:49.352Z,7.84
2019-03-08T16:51:49.332Z,7.84
2019-03-08T16:52:49.315Z,7.81
2019-03-08T16:53:49.298Z,7.85
2019-03-08T16:54:49.279Z,7.81
2019-03-08T16:55:49.676Z,7.74
2019-03-08T16:56:57.399Z,7.64
2019-03-08T16:58:42.166Z,7.62
2019-03-08T16:59:42.130Z,7.58
2019-03-08T17:01:41.948Z,7.50
2019-03-08T17:02:50.103Z,7.44
2019-03-08T17:04:34.812Z,7.28
2019-03-08T17:05:34.775Z,7.29
2019-03-08T17:07:27.687Z,7.22
2019-03-08T17:08:27.661Z,7.05
2019-03-08T17:10:20.576Z,7.01
2019-03-08T17:11:20.531Z,6.97
2019-03-08T17:13:14.396Z,6.96
2019-03-08T17:14:14.379Z,6.86
2019-03-08T17:16:11.251Z,6.78
2019-03-08T17:17:11.231Z,6.70
2019-03-08T17:18:11.202Z,6.80
2019-03-08T17:19:12.095Z,6.78
2019-03-08T17:20:11.158Z,6.74
2019-03-08T17:21:11.145Z,6.70
2019-03-08T17:22:11.125Z,6.70
2019-03-08T17:23:11.108Z,6.71
2019-03-08T17:24:11.089Z,6.62
2019-03-08T17:25:11.072Z,6.57
2019-03-08T17:26:11.051Z,6.60
2019-03-08T17:27:11.038Z,6.64
2019-03-08T17:28:11.043Z,6.57
2019-03-08T17:29:10.998Z,6.64
2019-03-08T17:30:11.012Z,6.54
2019-03-08T17:31:10.961Z,6.52
2019-03-08T17:32:10.942Z,6.49
2019-03-08T17:33:10.925Z,6.38
2019-03-08T17:34:10.912Z,6.43
2019-03-08T17:35:10.887Z,6.43
2019-03-08T17:36:10.869Z,6.43
2019-03-08T17:37:10.851Z,6.38
2019-03-08T17:38:10.842Z,6.28
2019-03-08T17:39:10.815Z,6.35
2019-03-08T17:40:10.796Z,6.26
2019-03-08T17:41:10.775Z,6.29
2019-03-08T17:42:10.758Z,6.32
2019-03-08T17:43:10.739Z,6.26
2019-03-08T17:44:10.721Z,6.22
2019-03-08T17:45:10.706Z,6.22
2019-03-08T17:46:10.684Z,6.25
2019-03-08T17:47:10.666Z,6.22
2019-03-08T17:48:10.647Z,6.29
2019-03-08T17:49:10.631Z,6.22
2019-03-08T17:50:10.610Z,6.28
2019-03-08T17:51:10.591Z,6.22
2019-03-08T17:52:10.574Z,6.22
2019-03-08T17:53:10.555Z,6.25
2019-03-08T17:54:10.535Z,6.26
2019-03-08T17:55:10.522Z,6.29
2019-03-08T17:56:10.499Z,6.19
2019-03-08T17:57:10.486Z,6.26
2019-03-08T17:58:10.473Z,6.34
2019-03-08T17:59:10.470Z,6.31
2019-03-08T18:00:10.445Z,6.39
2019-03-08T18:01:10.408Z,6.36
2019-03-08T18:02:10.420Z,6.41
2019-03-08T18:03:10.364Z,6.41
2019-03-08T18:04:10.365Z,6.41
2019-03-08T18:05:10.336Z,6.41
2019-03-08T18:06:10.327Z,6.50
2019-03-08T18:07:10.299Z,6.53
2019-03-08T18:08:10.292Z,6.50
2019-03-08T18:09:10.272Z,6.52
2019-03-08T18:10:10.265Z,6.54
2019-03-08T18:11:10.253Z,6.56
2019-03-08T18:12:10.223Z,6.54
2019-03-08T18:13:10.188Z,6.47
2019-03-08T18:14:10.162Z,6.50
2019-03-08T18:15:10.156Z,6.53
2019-03-08T18:16:10.134Z,6.56
2019-03-08T18:17:10.114Z,6.54
2019-03-08T18:18:10.096Z,6.49
2019-03-08T18:19:10.075Z,6.36
2019-03-08T18:20:10.060Z,6.38
2019-03-08T18:21:10.037Z,6.26
2019-03-08T18:22:17.222Z,6.32
2019-03-08T18:24:03.900Z,6.25
2019-03-08T18:25:12.027Z,6.20
2019-03-08T18:26:57.608Z,6.13
2019-03-08T18:27:57.598Z,6.16
2019-03-08T18:29:50.459Z,6.13
2019-03-08T18:30:57.824Z,6.13
2019-03-08T18:32:43.387Z,6.10
2019-03-08T18:33:51.604Z,6.15
2019-03-08T18:35:37.185Z,6.20
2019-03-08T18:36:37.188Z,6.13
2019-03-08T18:38:30.090Z,6.20
2019-03-08T18:39:30.039Z,6.28
2019-03-08T18:41:23.901Z,6.28
2019-03-08T18:42:23.860Z,6.28
2019-03-08T18:44:20.750Z,6.41
2019-03-08T18:45:20.711Z,6.39
2019-03-08T18:46:28.861Z,6.43
2019-03-08T18:48:13.582Z,6.39
2019-03-08T18:49:13.548Z,6.41
2019-03-08T18:50:13.527Z,6.47
2019-03-08T18:51:13.508Z,6.53
2019-03-08T18:52:13.492Z,6.56
2019-03-08T18:53:13.476Z,6.56
2019-03-08T18:54:13.453Z,6.49
2019-03-08T18:55:20.680Z,6.60
2019-03-08T18:57:06.359Z,6.64
2019-03-08T18:58:06.315Z,6.60
2019-03-08T18:59:06.296Z,6.60
2019-03-08T19:00:15.335Z,6.60
2019-03-08T19:01:59.297Z,6.65
2019-03-08T19:02:59.265Z,6.60
2019-03-08T19:04:57.130Z,6.64
2019-03-08T19:06:07.416Z,6.80
2019-03-08T19:06:57.068Z,6.72